Stations météo

Publicité
St. James's Park, Grande-Bretagne (3770): Température de l'air & dewpoint: 14.08.2019 02:00:00 - 20.08.2019 02:00:00 (BST)St. James's Park, Grande-Bretagne (3770): Température de l'air -20cm & Température de l'air -100cm: 14.08.2019 02:00:00 - 20.08.2019 02:00:00 (BST)St. James's Park, Grande-Bretagne (3770): Quantités de précipitations: 14.08.2019 02:00:00 - 20.08.2019 02:00:00 (BST)
Date & Time tt [°C] td [°C] tt -20cm [°C] tt -100cm [°C] rr [mm]
20.08.2019 02:00:00 13,4 10,1 - - -
20.08.2019 01:00:00 13,9 9,9 - - 0,0
20.08.2019 00:00:00 14,8 9,9 - - 0,0
19.08.2019 23:00:00 14,9 8,9 - - 0,0
19.08.2019 22:00:00 15,6 8,3 - - 0,0
19.08.2019 21:00:00 17,1 7,1 - - 0,0
19.08.2019 20:00:00 18,3 6,1 - - 0,0
19.08.2019 19:00:00 19,2 7,8 - - 0,0
19.08.2019 18:00:00 19,6 9,1 - - 0,0
19.08.2019 17:00:00 20,2 8,6 - - 0,0
19.08.2019 16:00:00 20,0 9,5 - - 0,0
19.08.2019 15:00:00 19,8 11,1 - - 0,2
19.08.2019 14:00:00 18,1 14,0 - - 4,2
19.08.2019 13:00:00 18,3 11,0 - - 0,0
19.08.2019 12:00:00 19,7 11,7 - - 0,0
19.08.2019 11:00:00 18,9 12,8 - - 0,0
19.08.2019 10:00:00 17,3 12,3 18,7 18,4 0,0
19.08.2019 09:00:00 15,4 12,4 - - 0,2
19.08.2019 08:00:00 15,0 12,3 - - 0,0
19.08.2019 07:00:00 14,1 11,2 - - 0,0
19.08.2019 06:00:00 13,7 11,4 - - 0,0
19.08.2019 05:00:00 13,2 11,2 - - 0,0
19.08.2019 04:00:00 12,9 11,2 - - 0,0
19.08.2019 03:00:00 13,3 11,3 - - 0,0
19.08.2019 02:00:00 13,5 11,1 - - 0,0
19.08.2019 01:00:00 13,9 11,5 - - 0,0
19.08.2019 00:00:00 14,2 12,2 - - 0,0
18.08.2019 23:00:00 14,4 12,8 - - 0,0
18.08.2019 22:00:00 14,6 12,7 - - 0,0
18.08.2019 21:00:00 14,9 13,0 - - 2,0
18.08.2019 20:00:00 18,1 12,1 - - 0,0
18.08.2019 19:00:00 18,9 12,6 - - 0,0
18.08.2019 18:00:00 20,0 10,6 - - 0,0
18.08.2019 17:00:00 21,1 10,9 - - 0,0
18.08.2019 16:00:00 20,5 9,3 - - 0,0
18.08.2019 15:00:00 21,2 10,5 - - 0,0
18.08.2019 14:00:00 20,2 11,4 - - 0,0
18.08.2019 13:00:00 19,2 13,1 - - 0,0
18.08.2019 12:00:00 16,6 13,3 - - 0,2
18.08.2019 11:00:00 14,7 13,3 - - 2,6
18.08.2019 10:00:00 17,0 11,5 19,0 18,4 0,0
18.08.2019 09:00:00 17,0 13,0 - - 0,0
18.08.2019 08:00:00 16,1 13,0 - - 0,0
18.08.2019 07:00:00 15,5 13,2 - - 0,0
18.08.2019 06:00:00 15,3 12,8 - - 0,0
18.08.2019 05:00:00 15,7 12,8 - - 0,0
18.08.2019 04:00:00 15,8 12,1 - - 0,0
18.08.2019 03:00:00 15,9 12,0 - - 0,0
18.08.2019 02:00:00 16,1 12,2 - - 0,0
18.08.2019 01:00:00 16,2 12,5 - - 0,0
18.08.2019 00:00:00 16,4 12,9 - - 0,0
17.08.2019 23:00:00 16,7 12,7 - - 0,0
17.08.2019 22:00:00 17,3 12,2 - - 0,0
17.08.2019 21:00:00 17,9 12,3 - - 0,0
17.08.2019 20:00:00 18,8 12,2 - - 0,0
17.08.2019 19:00:00 20,1 12,9 - - 0,0
17.08.2019 18:00:00 20,9 13,1 - - 0,0
17.08.2019 17:00:00 22,2 11,4 - - 0,0
17.08.2019 16:00:00 22,9 12,3 - - 0,0
17.08.2019 15:00:00 22,0 11,5 - - 0,0
17.08.2019 14:00:00 22,7 13,7 - - 0,0
17.08.2019 13:00:00 20,7 13,3 - - 0,0
17.08.2019 12:00:00 19,4 12,4 - - 0,0
17.08.2019 11:00:00 19,4 12,9 - - 0,0
17.08.2019 10:00:00 18,2 13,5 18,7 18,5 0,0
17.08.2019 09:00:00 17,6 13,2 - - 0,0
17.08.2019 08:00:00 16,4 13,8 - - 0,0
17.08.2019 07:00:00 16,2 14,7 - - 0,0
17.08.2019 06:00:00 16,5 15,1 - - 0,0
17.08.2019 05:00:00 17,2 15,9 - - 0,0
17.08.2019 04:00:00 17,5 16,6 - - 0,0
17.08.2019 03:00:00 17,5 16,7 - - 0,0
17.08.2019 02:00:00 17,4 16,7 - - 0,4
17.08.2019 01:00:00 17,2 16,4 - - 0,2
17.08.2019 00:00:00 17,0 16,1 - - 1,0
16.08.2019 23:00:00 16,8 15,8 - - 0,6
16.08.2019 22:00:00 17,2 15,3 - - 0,0
16.08.2019 21:00:00 17,0 15,4 - - 0,2
16.08.2019 20:00:00 17,2 14,9 - - 0,2
16.08.2019 19:00:00 16,9 14,6 - - 0,6
16.08.2019 18:00:00 17,1 14,5 - - 0,0
16.08.2019 17:00:00 16,8 14,2 - - 0,2
16.08.2019 16:00:00 16,6 13,9 - - 0,4
16.08.2019 15:00:00 17,8 13,5 - - 0,0
16.08.2019 14:00:00 17,3 13,4 - - 0,2
16.08.2019 13:00:00 18,7 12,1 - - 0,0
16.08.2019 12:00:00 18,3 12,2 - - 0,0
16.08.2019 11:00:00 18,4 13,1 - - 0,0
16.08.2019 10:00:00 18,5 13,7 18,7 18,5 0,0
16.08.2019 09:00:00 17,3 13,3 - - 0,0
16.08.2019 08:00:00 16,2 13,2 - - 0,0
16.08.2019 07:00:00 15,0 12,3 - - 0,0
16.08.2019 06:00:00 13,7 11,9 - - 0,0
16.08.2019 05:00:00 13,3 11,7 - - 0,0
16.08.2019 04:00:00 13,7 12,0 - - 0,0
16.08.2019 03:00:00 13,3 11,3 - - 0,0
16.08.2019 02:00:00 13,8 12,0 - - 0,0
16.08.2019 01:00:00 14,2 11,5 - - 0,0
16.08.2019 00:00:00 15,0 10,0 - - 0,0
15.08.2019 23:00:00 15,9 9,6 - - 0,0
15.08.2019 22:00:00 16,9 10,3 - - 0,0
15.08.2019 21:00:00 18,2 10,0 - - 0,0
15.08.2019 20:00:00 19,7 9,5 - - 0,0
15.08.2019 19:00:00 20,2 9,5 - - 0,0
15.08.2019 18:00:00 21,4 9,1 - - 0,0
15.08.2019 17:00:00 21,9 9,9 - - 0,0
15.08.2019 16:00:00 22,6 10,3 - - 0,0
15.08.2019 15:00:00 22,5 10,2 - - 0,0
15.08.2019 14:00:00 20,8 10,1 - - 0,0
15.08.2019 13:00:00 20,6 11,6 - - 0,0
15.08.2019 12:00:00 20,7 11,6 - - 0,0
15.08.2019 11:00:00 19,8 12,1 - - 0,0
15.08.2019 10:00:00 18,6 13,3 18,7 18,7 0,0
15.08.2019 09:00:00 17,7 13,4 - - 0,0
15.08.2019 08:00:00 17,1 14,5 - - 0,0
15.08.2019 07:00:00 15,6 14,1 - - 0,0
15.08.2019 06:00:00 15,0 13,6 - - 0,0
15.08.2019 05:00:00 15,7 13,8 - - 0,0
15.08.2019 04:00:00 16,5 14,6 - - 0,0
15.08.2019 03:00:00 17,1 15,6 - - 0,0
15.08.2019 02:00:00 17,2 15,9 - - 0,0
15.08.2019 01:00:00 17,3 16,0 - - 0,2
15.08.2019 00:00:00 17,1 16,1 - - 0,0
14.08.2019 23:00:00 17,5 16,4 - - 0,0
14.08.2019 22:00:00 17,4 16,5 - - 0,2
14.08.2019 21:00:00 17,3 16,4 - - 0,0
14.08.2019 20:00:00 17,3 16,3 - - 0,0
14.08.2019 19:00:00 16,8 16,0 - - 0,4
14.08.2019 18:00:00 16,8 15,9 - - 0,4
14.08.2019 17:00:00 16,7 15,7 - - 1,6
14.08.2019 16:00:00 16,4 15,4 - - 2,6
14.08.2019 15:00:00 16,6 14,5 - - 0,0
14.08.2019 14:00:00 15,2 14,2 - - 2,8
14.08.2019 13:00:00 14,3 13,0 - - 2,2
14.08.2019 12:00:00 15,3 13,3 - - 1,0
14.08.2019 11:00:00 15,6 13,7 - - 2,2
14.08.2019 10:00:00 15,4 13,1 18,9 18,7 0,8
14.08.2019 09:00:00 16,0 13,1 - - 0,0
14.08.2019 08:00:00 16,3 12,9 - - 0,0
14.08.2019 07:00:00 15,3 13,1 - - 0,0
14.08.2019 06:00:00 15,0 12,8 - - 0,0
14.08.2019 05:00:00 14,6 12,2 - - 0,0
14.08.2019 04:00:00 14,5 11,7 - - 0,0
14.08.2019 03:00:00 14,6 11,6 - - 0,0
14.08.2019 02:00:00 14,6 11,4 - - 0,0

tt = Température de l'air
td = dewpoint
tt -20cm = Température de l'air -20cm
tt -100cm = Température de l'air -100cm
rr = Quantités de précipitations

stations d'obs. à proximité